Time;durP1;ratioP1;P1;durP2;ratioP2;P2;SDS_P1;SDS_P2;PMS_P1;PMS_P2;Temp;Humidity;BMP_temperature;BMP_pressure;BME280_temperature;BME280_humidity;BME280_pressure;Samples;Min_cycle;Max_cycle;Signal;HPM_P1;HPM_P2
2022/06/06 00:01:18;;;;;;;7.03;5.35;;;;;;;24.77;45.58;100841.22;4979922;28;20057;-86
2022/06/06 00:03:44;;;;;;;7.28;5.43;;;;;;;24.83;45.34;100853.72;4995941;28;21996;-85
2022/06/06 00:06:13;;;;;;;6.25;4.97;;;;;;;24.70;45.44;100830.63;4995060;28;20126;-84
2022/06/06 00:08:39;;;;;;;7.28;5.60;;;;;;;24.81;45.23;100858.44;4979152;28;20037;-85
2022/06/06 00:11:08;;;;;;;6.60;5.05;;;;;;;24.76;45.46;100851.06;4991958;28;20096;-85
2022/06/06 00:13:34;;;;;;;8.97;5.57;;;;;;;24.79;45.48;100847.19;4957288;28;20042;-85
2022/06/06 00:15:59;;;;;;;6.80;5.28;;;;;;;24.81;45.55;100861.09;4995319;28;20038;-85
2022/06/06 00:18:25;;;;;;;6.32;5.25;;;;;;;24.80;45.27;100856.81;5000903;28;20057;-85
2022/06/06 00:20:50;;;;;;;6.47;5.65;;;;;;;24.57;45.32;100828.00;4999986;28;20038;-85
2022/06/06 00:23:16;;;;;;;6.30;5.53;;;;;;;24.69;45.37;100840.47;4999419;28;20393;-86
2022/06/06 00:25:41;;;;;;;6.68;4.80;;;;;;;24.76;45.63;100864.38;5001512;28;21085;-85
2022/06/06 00:28:07;;;;;;;7.53;4.95;;;;;;;24.75;45.49;100861.94;4988026;28;20042;-85
2022/06/06 00:30:32;;;;;;;6.15;5.40;;;;;;;24.75;45.70;100870.75;4985426;28;20073;-85
2022/06/06 00:35:46;;;;;;;6.47;5.18;;;;;;;24.72;45.53;100857.84;4966874;28;20539;-85
2022/06/06 00:38:12;;;;;;;5.82;4.47;;;;;;;24.54;45.39;100839.09;4981704;28;20050;-85
2022/06/06 00:40:38;;;;;;;5.88;4.93;;;;;;;24.71;45.49;100862.38;4986117;28;20261;-85
2022/06/06 00:43:03;;;;;;;6.25;4.93;;;;;;;24.55;45.48;100836.22;4971849;28;20035;-85
2022/06/06 00:45:35;;;;;;;6.72;5.40;;;;;;;24.70;45.48;100862.56;4982254;28;20154;-85
2022/06/06 00:48:19;;;;;;;6.38;5.15;;;;;;;24.70;45.41;100854.59;4982307;28;20731;-85
2022/06/06 00:51:09;;;;;;;6.70;5.05;;;;;;;24.70;45.59;100858.06;4998390;28;20666;-85
2022/06/06 00:53:51;;;;;;;6.40;5.35;;;;;;;24.68;45.43;100849.47;4983628;28;20053;-85
2022/06/06 00:56:49;;;;;;;6.00;5.22;;;;;;;24.69;45.40;100850.28;4986782;28;20034;-85
2022/06/06 00:59:19;;;;;;;5.25;4.57;;;;;;;24.68;45.33;100856.66;4985184;28;20065;-85
2022/06/06 01:01:48;;;;;;;6.05;4.82;;;;;;;24.67;45.32;100857.69;4981967;28;20039;-85
2022/06/06 01:04:16;;;;;;;6.15;5.15;;;;;;;24.61;45.54;100850.53;5000879;28;20038;-84
2022/06/06 01:06:44;;;;;;;6.00;4.80;;;;;;;24.66;45.51;100856.84;4985344;28;20034;-85
2022/06/06 01:09:12;;;;;;;7.03;5.47;;;;;;;24.65;45.55;100862.41;4997682;28;20120;-85
2022/06/06 01:11:42;;;;;;;5.82;4.85;;;;;;;24.64;45.30;100858.91;4983943;28;20053;-88
2022/06/06 01:14:10;;;;;;;5.60;4.57;;;;;;;24.65;45.25;100859.75;4972659;28;20126;-87
2022/06/06 01:16:56;;;;;;;6.57;4.95;;;;;;;24.41;45.26;100821.31;4983230;28;20046;-88
2022/06/06 01:19:45;;;;;;;6.22;4.65;;;;;;;24.63;45.50;100862.63;5003316;28;20425;-87
2022/06/06 01:22:29;;;;;;;6.80;4.95;;;;;;;24.63;45.43;100865.28;4986503;28;20033;-87
2022/06/06 01:25:23;;;;;;;5.90;5.13;;;;;;;24.62;45.55;100863.66;4985915;28;20034;-88
2022/06/06 01:28:22;;;;;;;6.03;4.85;;;;;;;24.56;45.42;100853.00;5003571;28;20159;-89
2022/06/06 01:30:54;;;;;;;6.83;4.90;;;;;;;24.60;45.52;100865.69;4990255;28;20042;-88
2022/06/06 01:33:19;;;;;;;9.63;4.97;;;;;;;24.61;45.36;100858.53;4987888;28;20045;-87
2022/06/06 01:35:47;;;;;;;6.07;5.00;;;;;;;24.59;45.44;100863.22;4985900;28;20043;-88
2022/06/06 01:38:17;;;;;;;5.75;4.70;;;;;;;24.52;45.38;100852.59;4990724;28;20640;-88
2022/06/06 01:40:54;;;;;;;5.63;4.35;;;;;;;24.58;45.61;100865.06;5005324;28;20033;-87
2022/06/06 01:43:27;;;;;;;5.90;4.80;;;;;;;24.58;45.40;100869.56;4996027;28;20041;-87
2022/06/06 01:45:58;;;;;;;7.55;4.90;;;;;;;24.50;45.37;100860.00;5005361;28;20072;-87
2022/06/06 01:48:30;;;;;;;7.15;4.82;;;;;;;24.57;45.37;100870.59;5004075;28;20045;-88
2022/06/06 01:50:56;;;;;;;5.88;4.68;;;;;;;24.52;45.31;100859.78;5008893;28;20033;-88
2022/06/06 01:53:24;;;;;;;6.15;4.20;;;;;;;24.57;45.40;100878.59;4989111;28;20415;-88
2022/06/06 01:55:51;;;;;;;5.28;4.60;;;;;;;24.52;45.38;100873.91;5004357;28;20100;-88
2022/06/06 01:58:20;;;;;;;4.82;4.20;;;;;;;24.55;45.43;100872.66;5002814;28;20046;-88
2022/06/06 02:00:46;;;;;;;6.07;4.85;;;;;;;24.54;45.31;100885.16;4996921;28;20037;-87
2022/06/06 02:03:11;;;;;;;5.78;4.43;;;;;;;24.48;45.47;100874.53;5006009;28;21011;-88
2022/06/06 02:05:37;;;;;;;5.10;4.40;;;;;;;24.49;45.37;100878.84;4990030;28;20680;-88
2022/06/06 02:08:02;;;;;;;6.10;4.47;;;;;;;24.46;45.37;100884.56;4991001;28;20033;-87
2022/06/06 02:10:28;;;;;;;5.53;4.60;;;;;;;24.51;45.41;100887.44;5007861;28;20030;-88
2022/06/06 02:12:54;;;;;;;5.93;4.40;;;;;;;24.46;45.45;100892.56;5002129;28;20041;-87
2022/06/06 02:15:25;;;;;;;5.70;4.45;;;;;;;24.35;45.30;100878.03;4993629;28;20038;-88
2022/06/06 02:17:52;;;;;;;4.82;4.07;;;;;;;24.46;45.34;100901.38;5003220;28;20521;-88
2022/06/06 02:20:20;;;;;;;5.40;4.25;;;;;;;24.51;45.33;100912.19;5006010;28;20034;-88
2022/06/06 02:22:45;;;;;;;7.60;3.90;;;;;;;24.46;45.52;100922.66;5001209;28;20443;-88
2022/06/06 02:25:12;;;;;;;5.10;4.20;;;;;;;24.37;45.55;100907.94;4988697;28;20057;-88
2022/06/06 02:27:40;;;;;;;5.25;4.10;;;;;;;24.23;45.37;100893.78;4986747;28;20041;-88
2022/06/06 02:30:11;;;;;;;6.07;4.15;;;;;;;24.32;45.39;100905.91;4995748;28;20056;-88
2022/06/06 02:32:36;;;;;;;4.80;4.15;;;;;;;24.48;45.46;100933.09;5004386;28;20484;-88
2022/06/06 02:35:02;;;;;;;5.40;4.05;;;;;;;24.47;45.51;100940.28;5007402;28;20037;-89
2022/06/06 02:37:28;;;;;;;6.18;4.35;;;;;;;24.37;45.43;100921.22;5008469;28;20133;-89
2022/06/06 02:39:53;;;;;;;4.63;3.85;;;;;;;24.43;45.08;100939.06;5002875;28;20053;-89
2022/06/06 02:42:19;;;;;;;5.05;3.70;;;;;;;24.45;45.19;100952.16;4983917;28;20878;-88
2022/06/06 02:44:44;;;;;;;5.40;3.63;;;;;;;24.45;45.24;100944.97;4997385;28;20045;-88
2022/06/06 02:47:10;;;;;;;5.63;3.80;;;;;;;24.30;45.22;100928.41;4988224;28;20433;-88
2022/06/06 02:49:35;;;;;;;5.18;4.10;;;;;;;24.32;45.19;100939.69;5003102;28;20042;-88
2022/06/06 02:52:03;;;;;;;4.35;3.75;;;;;;;24.44;45.21;100961.16;5007444;28;20427;-89
2022/06/06 02:54:29;;;;;;;5.13;3.75;;;;;;;24.43;45.14;100959.53;4989104;28;20463;-87
2022/06/06 02:56:56;;;;;;;4.20;3.55;;;;;;;24.41;45.40;100963.19;5006417;28;20072;-89
2022/06/06 02:59:23;;;;;;;4.38;3.50;;;;;;;24.41;45.21;100960.53;4995377;28;20018;-88
2022/06/06 03:01:49;;;;;;;4.43;3.83;;;;;;;24.37;45.37;100953.16;5008434;28;20049;-89
2022/06/06 03:04:15;;;;;;;4.10;3.40;;;;;;;24.26;45.20;100938.63;5005822;28;20483;-89
2022/06/06 03:06:51;;;;;;;4.85;3.70;;;;;;;24.39;45.57;100961.75;4989927;28;20080;-88
2022/06/06 03:09:19;;;;;;;3.97;3.40;;;;;;;24.38;45.36;100974.25;5009000;28;20481;-89
2022/06/06 03:12:13;;;;;;;5.20;3.80;;;;;;;24.39;45.44;100972.41;5006942;28;20105;-89
2022/06/06 03:14:51;;;;;;;4.03;3.30;;;;;;;24.38;45.35;100971.59;4993016;28;20048;-89
2022/06/06 03:21:02;;;;;;;4.90;3.47;;;;;;;24.37;45.38;100971.81;4984158;28;20188;-89
2022/06/06 03:23:37;;;;;;;3.53;3.03;;;;;;;24.37;45.18;100975.28;5003100;28;20030;-89
2022/06/06 03:26:16;;;;;;;4.97;3.63;;;;;;;24.36;45.42;100980.81;4973281;28;20041;-89
2022/06/06 03:28:51;;;;;;;3.40;3.10;;;;;;;24.36;45.25;100976.31;5002959;28;20032;-90
2022/06/06 03:32:00;;;;;;;4.32;3.20;;;;;;;24.35;45.33;100981.84;4993465;28;20088;-89
2022/06/06 03:34:41;;;;;;;5.25;3.25;;;;;;;24.35;45.29;100984.50;5009138;28;20037;-89
2022/06/06 03:37:06;;;;;;;3.95;3.40;;;;;;;24.35;45.45;100980.00;5008674;28;20032;-88
2022/06/06 03:39:50;;;;;;;4.45;3.63;;;;;;;24.35;45.22;100980.00;4991604;28;20674;-89
2022/06/06 03:42:19;;;;;;;4.90;3.53;;;;;;;24.34;45.23;100981.03;5006903;28;20050;-89
2022/06/06 03:44:53;;;;;;;3.42;2.92;;;;;;;24.34;45.25;100974.88;5006974;28;20034;-89
2022/06/06 03:47:48;;;;;;;5.10;3.53;;;;;;;24.33;45.27;100982.03;5000445;28;20048;-89
2022/06/06 03:50:53;;;;;;;3.47;3.17;;;;;;;24.31;45.32;100985.94;4992242;28;20112;-90
2022/06/06 03:53:24;;;;;;;3.50;3.20;;;;;;;24.23;45.34;100970.94;4996579;28;20042;-86
2022/06/06 03:56:11;;;;;;;4.45;3.45;;;;;;;24.29;45.25;100986.16;5006724;28;20038;-86
2022/06/06 03:58:37;;;;;;;4.00;3.35;;;;;;;24.29;45.20;100983.50;5006983;28;20056;-86
2022/06/06 04:01:07;;;;;;;3.42;3.05;;;;;;;24.29;45.22;100985.34;4998140;28;20469;-86
2022/06/06 04:03:34;;;;;;;4.43;3.40;;;;;;;24.29;45.34;100993.31;5006380;28;20353;-86
2022/06/06 04:06:04;;;;;;;4.05;3.08;;;;;;;24.29;45.29;100993.31;5007787;28;20050;-86
2022/06/06 04:08:32;;;;;;;4.63;3.40;;;;;;;24.27;45.24;100995.34;5004902;28;20077;-86
2022/06/06 04:11:16;;;;;;;3.45;3.00;;;;;;;24.27;45.23;100990.00;4992230;28;20057;-86
2022/06/06 04:14:09;;;;;;;3.83;3.25;;;;;;;24.27;45.39;100987.34;5010025;28;20053;-87
2022/06/06 04:16:59;;;;;;;3.60;3.03;;;;;;;24.25;45.37;100987.56;4985201;28;20054;-85
2022/06/06 04:19:34;;;;;;;;;;;;;;;24.25;45.29;100982.25;5012036;28;20084;-85
2022/06/06 04:22:37;;;;;;;4.30;3.33;;;;;;;24.26;45.35;100988.38;5010352;28;21630;-85
2022/06/06 04:25:11;;;;;;;2.95;2.60;;;;;;;24.25;45.44;100981.41;5009697;28;20038;-85
2022/06/06 04:27:57;;;;;;;4.10;3.20;;;;;;;23.99;45.43;100944.97;5007097;28;20061;-86
2022/06/06 04:30:45;;;;;;;3.40;2.95;;;;;;;24.24;45.26;100983.25;5013412;28;20042;-85
2022/06/06 04:33:18;;;;;;;3.55;2.90;;;;;;;24.23;45.29;100986.91;4980536;28;20049;-86
2022/06/06 04:35:52;;;;;;;4.13;3.00;;;;;;;24.22;45.24;100990.59;4994117;28;20033;-86
2022/06/06 04:38:35;;;;;;;3.30;2.72;;;;;;;24.04;45.33;100966.44;5008377;28;20801;-86
2022/06/06 04:41:22;;;;;;;3.72;2.97;;;;;;;24.22;45.24;100985.28;5009137;28;20495;-86
2022/06/06 04:44:06;;;;;;;4.20;3.15;;;;;;;24.22;45.06;100995.09;5006088;28;20017;-86
2022/06/06 04:46:50;;;;;;;3.58;3.17;;;;;;;24.21;45.27;101002.28;4997323;28;20038;-87
2022/06/06 04:49:16;;;;;;;3.70;3.05;;;;;;;24.18;45.25;100989.38;5011758;28;20709;-87
2022/06/06 04:51:44;;;;;;;4.95;3.30;;;;;;;24.11;45.33;100978.75;4991541;28;20038;-86
2022/06/06 04:54:14;;;;;;;3.28;2.75;;;;;;;24.21;45.19;100999.59;5007054;28;20265;-86
2022/06/06 04:56:40;;;;;;;3.92;3.00;;;;;;;24.20;45.28;100994.50;5006165;28;20041;-86
2022/06/06 04:59:09;;;;;;;4.20;3.13;;;;;;;24.20;45.22;100997.97;5000928;28;20045;-86
2022/06/06 05:01:37;;;;;;;2.88;2.58;;;;;;;24.17;45.39;101000.22;4997357;28;20038;-87
2022/06/06 05:04:02;;;;;;;3.22;2.78;;;;;;;23.89;45.09;100956.03;4992197;28;20030;-87
2022/06/06 05:06:37;;;;;;;3.17;2.90;;;;;;;24.19;45.30;101008.81;5008810;28;20482;-87
2022/06/06 05:09:30;;;;;;;3.55;2.70;;;;;;;24.18;45.17;101012.50;5010060;28;20681;-86
2022/06/06 05:12:13;;;;;;;3.05;2.60;;;;;;;24.17;45.30;101014.34;4994185;28;20053;-86
2022/06/06 05:14:54;;;;;;;3.00;2.60;;;;;;;24.18;45.19;101020.50;4990514;28;20480;-85
2022/06/06 05:17:48;;;;;;;2.95;2.65;;;;;;;24.18;45.23;101028.47;4992606;28;20053;-86
2022/06/06 05:20:34;;;;;;;3.67;2.58;;;;;;;24.14;45.28;101020.09;5010406;28;20504;-85
2022/06/06 05:23:15;;;;;;;3.65;2.80;;;;;;;24.16;45.14;101038.50;5007035;28;20132;-86
2022/06/06 05:25:55;;;;;;;3.53;2.85;;;;;;;24.17;45.17;101045.47;5006110;28;20763;-85
2022/06/06 05:28:42;;;;;;;3.47;2.80;;;;;;;23.97;45.22;101014.34;5008567;28;20107;-85
2022/06/06 05:31:22;;;;;;;3.97;3.25;;;;;;;23.95;44.98;101000.44;5006097;28;20038;-85
2022/06/06 05:33:50;;;;;;;3.80;3.00;;;;;;;24.14;45.08;101036.06;4988942;28;20030;-85
2022/06/06 05:36:26;;;;;;;3.72;2.92;;;;;;;24.02;45.17;101033.16;5008903;28;20041;-85
2022/06/06 05:39:08;;;;;;;5.13;3.08;;;;;;;23.89;45.02;101009.22;5009238;28;20475;-84
2022/06/06 05:41:37;;;;;;;3.65;3.08;;;;;;;24.14;45.13;101053.84;5007059;28;20087;-86
2022/06/06 05:44:33;;;;;;;3.25;2.88;;;;;;;24.08;45.04;101045.66;4995589;28;20040;-86
2022/06/06 05:47:24;;;;;;;3.45;2.88;;;;;;;24.12;45.25;101067.38;4995359;28;20048;-85
2022/06/06 05:50:04;;;;;;;3.78;2.88;;;;;;;23.99;45.09;101043.41;5010971;28;20050;-85
2022/06/06 05:52:57;;;;;;;4.47;3.17;;;;;;;23.92;45.13;101039.91;5004338;28;20052;-86
2022/06/06 05:55:45;;;;;;;3.85;2.85;;;;;;;24.09;45.05;101068.59;5002329;28;20061;-85
2022/06/06 05:58:27;;;;;;;3.97;2.90;;;;;;;23.88;45.04;101044.81;5002898;28;20867;-85
2022/06/06 06:01:21;;;;;;;3.97;3.03;;;;;;;24.11;45.23;101073.72;5006422;28;20038;-86
2022/06/06 06:04:19;;;;;;;4.25;2.92;;;;;;;24.01;45.24;101066.09;4978694;28;20029;-86
2022/06/06 06:07:24;;;;;;;4.47;3.33;;;;;;;23.97;45.07;101058.75;5003937;28;20041;-85
2022/06/06 06:10:09;;;;;;;3.72;3.08;;;;;;;23.96;45.20;101060.56;4988520;28;20176;-86
2022/06/06 06:12:58;;;;;;;4.07;3.20;;;;;;;24.09;45.07;101095.19;5007983;28;20029;-85
2022/06/06 06:15:56;;;;;;;4.25;3.08;;;;;;;24.09;45.18;101081.06;4988244;28;20102;-85
2022/06/06 06:19:07;;;;;;;4.43;3.30;;;;;;;24.09;45.02;101103.19;4952489;28;20045;-85
2022/06/06 06:21:39;;;;;;;4.80;3.47;;;;;;;23.97;45.05;101088.81;4984582;28;21066;-85
2022/06/06 06:24:12;;;;;;;5.22;3.10;;;;;;;24.08;45.04;101109.53;5008237;28;20389;-84
2022/06/06 06:26:39;;;;;;;3.45;2.72;;;;;;;24.08;44.99;101112.19;5006431;28;20049;-84
2022/06/06 06:29:08;;;;;;;5.47;3.28;;;;;;;23.97;44.93;101093.31;4994663;28;20118;-85
2022/06/06 06:31:47;;;;;;;5.22;3.70;;;;;;;23.89;45.09;101083.69;5009104;28;20124;-86
2022/06/06 06:34:57;;;;;;;4.40;3.20;;;;;;;24.08;44.98;101116.69;4996824;28;20480;-86
2022/06/06 06:37:38;;;;;;;4.05;3.35;;;;;;;24.05;45.00;101115.22;4990813;28;20053;-85
2022/06/06 06:40:42;;;;;;;4.93;3.38;;;;;;;24.06;45.08;101118.72;5004117;28;20042;-86
2022/06/06 06:43:18;;;;;;;4.60;3.88;;;;;;;24.05;45.02;101115.22;4984435;28;20045;-85
2022/06/06 06:45:49;;;;;;;4.55;3.22;;;;;;;23.71;45.02;101068.28;5008378;28;20117;-85
2022/06/06 06:48:24;;;;;;;5.35;3.50;;;;;;;24.01;45.00;101123.81;4994739;28;20492;-84
2022/06/06 06:51:04;;;;;;;5.47;3.85;;;;;;;23.73;45.04;101073.41;4988769;28;20053;-85
2022/06/06 06:53:44;;;;;;;4.32;3.70;;;;;;;23.87;44.95;101101.66;5005964;28;20124;-85
2022/06/06 06:56:37;;;;;;;5.97;3.80;;;;;;;24.03;44.92;101132.41;5008384;28;20149;-84
2022/06/06 06:59:33;;;;;;;4.47;3.70;;;;;;;23.84;44.90;101109.22;5002726;28;20057;-86
2022/06/06 07:11:04;;;;;;;;;;;;;;;24.03;44.96;101133.22;5006273;28;20099;-86
2022/06/06 07:13:38;;;;;;;5.63;3.80;;;;;;;24.03;44.84;101129.75;4991645;28;19974;-87
2022/06/06 07:16:07;;;;;;;4.75;3.72;;;;;;;24.03;44.79;101135.88;5007141;28;20034;-86
2022/06/06 07:18:33;;;;;;;6.03;4.45;;;;;;;24.04;44.94;101136.69;4994852;28;20029;-86
2022/06/06 07:21:01;;;;;;;5.03;3.80;;;;;;;24.01;45.04;101132.59;5004898;28;20108;-85
2022/06/06 07:23:31;;;;;;;5.55;4.22;;;;;;;24.05;44.95;101138.34;5005016;28;20042;-84
2022/06/06 07:25:59;;;;;;;5.15;3.78;;;;;;;24.04;44.96;101131.38;5003201;28;20045;-84
2022/06/06 07:28:25;;;;;;;4.82;3.70;;;;;;;23.98;45.12;101125.03;5000983;28;20072;-85
2022/06/06 07:31:12;;;;;;;4.55;3.60;;;;;;;24.05;44.85;101130.34;5002192;28;20045;-84
2022/06/06 07:34:04;;;;;;;5.78;3.80;;;;;;;24.05;44.83;101139.16;4974251;28;20484;-85
2022/06/06 07:36:42;;;;;;;5.00;3.75;;;;;;;24.05;44.98;101130.34;4979778;28;20034;-84
2022/06/06 07:39:35;;;;;;;4.63;3.88;;;;;;;24.04;44.96;101131.38;4999998;28;20049;-85
2022/06/06 07:42:22;;;;;;;5.20;4.20;;;;;;;24.05;44.82;101136.50;4997431;28;20049;-83
2022/06/06 07:45:06;;;;;;;5.05;3.60;;;;;;;24.03;45.01;101127.09;5006588;28;20030;-86
2022/06/06 07:47:52;;;;;;;7.25;4.18;;;;;;;24.07;44.93;101139.00;4994877;28;20041;-85
2022/06/06 07:50:21;;;;;;;5.35;3.53;;;;;;;24.02;44.90;101133.44;5006200;28;20150;-87
2022/06/06 07:52:58;;;;;;;5.35;4.03;;;;;;;24.07;45.07;101142.47;5004168;28;20039;-86
2022/06/06 07:55:33;;;;;;;5.40;3.83;;;;;;;24.01;45.12;101129.94;4988400;28;20061;-87
2022/06/06 07:58:20;;;;;;;11.25;4.35;;;;;;;24.06;45.51;101146.16;4986540;28;20701;-83
2022/06/06 08:01:03;;;;;;;4.95;3.47;;;;;;;23.83;45.37;101102.28;4998880;28;20042;-83
2022/06/06 08:03:45;;;;;;;5.03;3.67;;;;;;;23.96;45.07;101126.25;4990250;28;20088;-83
2022/06/06 08:06:14;;;;;;;6.10;3.63;;;;;;;24.03;45.03;101135.06;5000690;28;20017;-83
2022/06/06 08:09:02;;;;;;;4.68;3.75;;;;;;;24.10;44.99;101139.41;5002684;28;20132;-83
2022/06/06 08:11:36;;;;;;;6.45;3.85;;;;;;;24.13;45.00;101140.84;5004258;28;20070;-84
2022/06/06 08:14:23;;;;;;;5.25;3.85;;;;;;;24.11;44.82;101138.38;5002053;28;20037;-83
2022/06/06 08:17:35;;;;;;;5.40;4.00;;;;;;;24.04;45.07;101128.72;4997515;28;20069;-84
2022/06/06 08:20:00;;;;;;;6.10;3.63;;;;;;;24.16;44.89;101134.28;4958988;28;20077;-84
2022/06/06 08:22:26;;;;;;;6.18;4.10;;;;;;;23.97;44.90;101115.41;5000972;28;20172;-83
2022/06/06 08:24:54;;;;;;;5.05;3.70;;;;;;;24.10;44.96;101133.25;5000672;28;20040;-84
2022/06/06 08:27:19;;;;;;;5.97;4.20;;;;;;;23.98;45.06;101113.56;4986630;28;20192;-84
2022/06/06 08:29:47;;;;;;;5.93;3.45;;;;;;;24.16;44.95;101134.28;5005200;28;20045;-84
2022/06/06 08:32:14;;;;;;;5.05;3.42;;;;;;;24.18;44.94;101127.75;5004385;28;20095;-84
2022/06/06 08:34:40;;;;;;;4.97;3.50;;;;;;;24.10;45.07;101111.97;4990765;28;20041;-85
2022/06/06 08:37:17;;;;;;;5.35;3.33;;;;;;;24.17;45.09;101134.09;5009537;28;20030;-84
2022/06/06 08:40:01;;;;;;;5.22;3.53;;;;;;;24.18;45.00;101125.09;5003016;28;20128;-84
2022/06/06 08:42:36;;;;;;;4.15;3.72;;;;;;;24.19;44.98;101126.72;5012663;28;20056;-84
2022/06/06 08:45:19;;;;;;;4.93;3.42;;;;;;;24.19;44.90;101128.56;5000885;28;20065;-84
2022/06/06 08:48:22;;;;;;;5.38;3.40;;;;;;;24.03;44.91;101111.13;5003749;28;20038;-84
2022/06/06 08:51:30;;;;;;;4.95;3.70;;;;;;;24.18;44.55;101129.59;5008977;28;20038;-84
2022/06/06 08:54:23;;;;;;;5.70;3.70;;;;;;;24.22;44.95;101142.28;4966200;28;20050;-84
2022/06/06 08:57:05;;;;;;;4.20;3.30;;;;;;;24.22;44.99;101138.81;5004463;28;20037;-84
2022/06/06 09:00:20;;;;;;;6.22;3.60;;;;;;;24.17;45.02;101125.28;5009490;28;20042;-84
2022/06/06 09:02:48;;;;;;;5.80;3.88;;;;;;;24.25;44.99;101136.59;4987876;28;20034;-84
2022/06/06 09:05:51;;;;;;;4.90;3.60;;;;;;;24.24;44.86;101140.25;4997705;28;20124;-84
2022/06/06 09:08:28;;;;;;;7.93;3.78;;;;;;;24.25;45.43;101138.41;4998915;28;20498;-83
2022/06/06 09:11:33;;;;;;;7.47;3.78;;;;;;;24.15;46.02;101143.28;4998981;28;20493;-82
2022/06/06 09:14:16;;;;;;;5.90;3.65;;;;;;;24.06;46.22;101153.31;4957926;28;20068;-82
2022/06/06 09:17:19;;;;;;;7.88;3.85;;;;;;;24.07;46.27;101131.81;5011249;28;20033;-85
2022/06/06 09:20:20;;;;;;;7.07;3.92;;;;;;;24.07;46.24;101144.31;4971303;28;20052;-83
2022/06/06 09:22:51;;;;;;;6.07;3.50;;;;;;;24.04;46.40;101145.50;5004294;28;20048;-81
2022/06/06 09:25:37;;;;;;;5.38;3.35;;;;;;;24.02;46.48;101136.09;5003352;28;20087;-80
2022/06/06 09:28:25;;;;;;;6.00;4.03;;;;;;;23.97;46.73;101133.22;5006709;28;20045;-81
2022/06/06 09:31:21;;;;;;;7.45;3.97;;;;;;;23.98;46.79;101150.81;5004185;28;20106;-80
2022/06/06 09:34:15;;;;;;;6.60;3.50;;;;;;;24.01;46.62;101143.25;4992643;28;20037;-80
2022/06/06 09:36:49;;;;;;;5.82;3.47;;;;;;;23.98;46.64;101140.19;5006038;28;20041;-81
2022/06/06 09:39:47;;;;;;;5.35;3.53;;;;;;;23.93;46.45;101148.75;5001546;28;20440;-83
2022/06/06 09:42:46;;;;;;;4.32;3.08;;;;;;;23.98;46.23;101137.50;5005030;28;20052;-82
2022/06/06 09:45:33;;;;;;;4.13;2.87;;;;;;;23.98;46.50;101148.16;5002435;28;20376;-82
2022/06/06 09:48:17;;;;;;;4.47;3.05;;;;;;;23.94;46.58;101152.25;5000328;28;20049;-82
2022/06/06 09:50:55;;;;;;;5.53;3.17;;;;;;;23.91;46.32;101145.47;4991424;28;20431;-82
2022/06/06 09:59:01;;;;;;;11.48;4.97;;;;;;;23.88;45.54;101158.34;5002566;28;20045;-81
2022/06/06 10:00:10;;;;;;;7.82;5.25;;;;;;;24.05;45.35;101148.97;5001420;28;20041;-80
2022/06/06 10:02:51;;;;;;;7.03;4.53;;;;;;;24.10;45.18;101138.59;4989567;28;20038;-81
2022/06/06 10:05:25;;;;;;;5.82;3.92;;;;;;;24.24;45.10;101153.56;4989226;28;20049;-79
2022/06/06 10:08:22;;;;;;;8.13;4.22;;;;;;;24.32;45.20;101152.59;5002049;28;20048;-80
2022/06/06 10:11:09;;;;;;;7.40;4.00;;;;;;;24.34;44.95;101147.88;4948219;28;20051;-81
2022/06/06 10:14:07;;;;;;;6.50;3.72;;;;;;;24.39;44.88;101148.91;5004503;28;20484;-81
2022/06/06 10:16:44;;;;;;;7.05;3.60;;;;;;;24.43;44.88;101156.50;4964352;28;20050;-80
2022/06/06 10:19:23;;;;;;;6.30;3.10;;;;;;;24.45;44.90;101149.94;4985726;28;20041;-82
2022/06/06 10:21:55;;;;;;;7.85;3.88;;;;;;;24.46;44.77;101145.44;4967861;28;20184;-80
2022/06/06 10:24:27;;;;;;;4.50;3.20;;;;;;;24.36;44.45;101127.19;4996753;28;20041;-81
2022/06/06 10:27:18;;;;;;;6.25;3.35;;;;;;;24.49;44.46;101145.03;4935861;28;20107;-81
2022/06/06 10:30:25;;;;;;;8.32;3.65;;;;;;;24.52;44.46;101149.94;5004325;28;20061;-79
2022/06/06 10:33:11;;;;;;;6.53;3.22;;;;;;;24.55;44.54;101161.00;4937577;28;20041;-81
2022/06/06 10:35:47;;;;;;;6.85;3.15;;;;;;;24.54;44.53;101156.72;4986773;28;20042;-82
2022/06/06 10:38:27;;;;;;;6.82;3.65;;;;;;;24.57;44.34;101153.63;4962353;28;20042;-79
2022/06/06 10:41:08;;;;;;;5.22;3.35;;;;;;;24.41;44.44;101132.72;5000046;28;20049;-81
2022/06/06 10:43:52;;;;;;;5.18;3.13;;;;;;;24.57;44.24;101172.28;4950355;28;20045;-81
2022/06/06 10:46:29;;;;;;;4.50;2.90;;;;;;;24.57;44.29;101160.81;5003630;28;20380;-83
2022/06/06 10:49:06;;;;;;;5.05;3.17;;;;;;;24.56;44.32;101162.66;4945753;28;20838;-82
2022/06/06 10:51:49;;;;;;;3.42;2.65;;;;;;;24.48;44.43;101167.34;4988741;28;20128;-83
2022/06/06 10:54:33;;;;;;;4.57;2.78;;;;;;;24.61;44.26;101176.19;4958268;28;20084;-81
2022/06/06 10:57:29;;;;;;;3.88;3.00;;;;;;;24.60;44.18;101176.41;5000889;28;20017;-81
2022/06/06 11:00:20;;;;;;;6.65;2.85;;;;;;;24.55;43.99;101160.19;4950857;28;20532;-80
2022/06/06 11:03:23;;;;;;;4.65;3.17;;;;;;;24.60;44.12;101177.22;5004048;28;20092;-80
2022/06/06 11:06:18;;;;;;;5.22;3.22;;;;;;;24.64;44.07;101172.31;4947302;28;20034;-82
2022/06/06 11:09:07;;;;;;;5.70;2.92;;;;;;;24.59;43.82;101151.59;4934447;28;20059;-81
2022/06/06 11:11:51;;;;;;;;;;;;;;;24.64;43.90;101172.31;4960209;28;20068;-80
2022/06/06 11:14:34;;;;;;;4.38;2.67;;;;;;;24.53;44.03;101135.63;4997439;28;19929;-79
2022/06/06 11:17:18;;;;;;;3.60;2.47;;;;;;;24.69;44.00;101165.34;4971684;28;20547;-80
2022/06/06 11:19:59;;;;;;;4.70;2.88;;;;;;;24.71;43.91;101175.78;4988820;28;21285;-80
2022/06/06 11:22:36;;;;;;;5.05;3.15;;;;;;;24.69;43.83;101157.34;4954359;28;20127;-80
2022/06/06 11:25:13;;;;;;;5.82;3.03;;;;;;;24.67;43.97;101169.22;4998707;28;20088;-80
2022/06/06 11:28:35;;;;;;;4.40;2.63;;;;;;;24.54;43.70;101135.41;4963431;28;20615;-80
2022/06/06 11:31:19;;;;;;;5.25;2.63;;;;;;;24.71;43.54;101154.47;4895604;28;20043;-80
2022/06/06 11:34:09;;;;;;;3.90;2.65;;;;;;;24.75;43.47;101173.53;4910899;29;20053;-79
2022/06/06 11:37:17;;;;;;;4.55;2.55;;;;;;;24.71;43.80;101173.13;4982309;28;20081;-79
2022/06/06 11:40:09;;;;;;;3.97;2.70;;;;;;;24.63;43.51;101157.34;4971503;28;20045;-79
2022/06/06 11:42:53;;;;;;;2.60;2.38;;;;;;;24.76;43.39;101175.16;4976623;28;20038;-79
2022/06/06 11:45:30;;;;;;;5.35;2.95;;;;;;;24.76;43.68;101189.28;4998395;28;20624;-79
2022/06/06 11:48:15;;;;;;;4.38;2.47;;;;;;;24.75;43.19;101170.84;4959099;28;20049;-80
2022/06/06 11:50:55;;;;;;;4.72;2.45;;;;;;;24.76;43.03;101170.66;4977960;28;20065;-79
2022/06/06 11:53:52;;;;;;;4.35;2.75;;;;;;;24.73;43.31;101178.22;4999832;28;20643;-80
2022/06/06 11:56:54;;;;;;;3.42;2.60;;;;;;;24.81;43.08;101170.06;4967055;28;20185;-80
2022/06/06 11:59:52;;;;;;;3.65;2.30;;;;;;;24.85;42.98;101171.28;4991203;28;20046;-80
2022/06/06 12:02:34;;;;;;;3.60;2.33;;;;;;;24.85;43.15;101158.78;4998610;28;20058;-80
2022/06/06 12:05:22;;;;;;;3.92;2.30;;;;;;;24.90;43.03;101158.97;4965186;28;20046;-82
2022/06/06 12:08:22;;;;;;;3.90;2.10;;;;;;;24.91;42.75;101149.16;4999690;28;20062;-80
2022/06/06 12:10:59;;;;;;;3.60;2.25;;;;;;;24.92;42.65;101142.78;4965528;28;20038;-82
2022/06/06 12:13:56;;;;;;;5.00;2.40;;;;;;;24.90;42.98;101145.66;5004002;28;20560;-80
2022/06/06 12:16:35;;;;;;;3.25;2.30;;;;;;;24.92;42.90;101145.44;4962678;28;20038;-81
2022/06/06 12:19:19;;;;;;;3.35;2.30;;;;;;;24.90;43.01;101136.84;4999640;28;20052;-80
2022/06/06 12:21:52;;;;;;;4.00;2.65;;;;;;;24.93;42.93;101133.78;4925652;28;20529;-80
2022/06/06 12:24:40;;;;;;;2.28;2.05;;;;;;;24.94;42.87;101133.56;5005459;28;20049;-80
2022/06/06 12:27:24;;;;;;;3.75;2.40;;;;;;;24.95;42.78;101137.84;4965268;28;20104;-80
2022/06/06 12:30:17;;;;;;;3.03;2.28;;;;;;;24.95;42.67;101131.72;5007988;28;20116;-81
2022/06/06 12:32:58;;;;;;;4.03;2.42;;;;;;;24.96;42.36;101128.88;4966158;28;20146;-80
2022/06/06 12:35:45;;;;;;;2.45;2.00;;;;;;;24.98;42.69;101126.81;4988903;28;20038;-79
2022/06/06 12:38:15;;;;;;;5.65;2.50;;;;;;;24.99;42.42;101128.50;4942308;28;20037;-78
2022/06/06 12:40:40;;;;;;;2.60;2.05;;;;;;;24.99;42.59;101120.50;5002968;28;20109;-78
2022/06/06 12:43:20;;;;;;;4.72;2.20;;;;;;;24.91;42.47;101120.66;4963561;28;20492;-79